Time;durP1;ratioP1;P1;durP2;ratioP2;P2;SDS_P1;SDS_P2;PMS_P1;PMS_P2;Temp;Humidity;BMP_temperature;BMP_pressure;BME280_temperature;BME280_humidity;BME280_pressure;Samples;Min_cycle;Max_cycle;Signal;HPM_P1;HPM_P2
2022/01/29 00:01:52;;;;;;;4.40;4.00;;;;;;;4.32;59.04;100041.75;5095459;28;20195;-69
2022/01/29 00:04:19;;;;;;;4.07;3.57;;;;;;;4.35;59.02;100040.63;5101701;28;20191;-69
2022/01/29 00:06:46;;;;;;;3.90;3.60;;;;;;;4.37;58.22;100043.97;5115727;28;20251;-69
2022/01/29 00:09:15;;;;;;;5.67;4.13;;;;;;;4.37;57.91;100034.25;5115812;28;20187;-69
2022/01/29 00:11:42;;;;;;;4.50;4.20;;;;;;;4.41;57.97;100040.88;5115896;28;20243;-69
2022/01/29 00:14:09;;;;;;;6.37;4.53;;;;;;;4.37;57.93;100046.59;5115911;28;20279;-69
2022/01/29 00:16:38;;;;;;;4.90;4.10;;;;;;;4.36;57.90;100048.38;5116911;28;20190;-69
2022/01/29 00:19:05;;;;;;;4.20;3.87;;;;;;;4.32;58.03;100057.53;5115553;28;20636;-69
2022/01/29 00:21:31;;;;;;;4.93;3.73;;;;;;;4.35;57.28;100041.47;5115735;28;20243;-68
2022/01/29 00:23:58;;;;;;;4.40;3.83;;;;;;;4.33;57.59;100046.03;5115380;28;20194;-69
2022/01/29 00:26:27;;;;;;;6.20;5.03;;;;;;;4.32;57.39;100046.16;5116478;28;20191;-69
2022/01/29 00:28:55;;;;;;;4.73;4.33;;;;;;;4.35;57.40;100051.16;5115633;28;20187;-68
2022/01/29 00:31:22;;;;;;;4.87;4.47;;;;;;;4.28;57.74;100045.63;5116338;28;20576;-68
2022/01/29 00:33:50;;;;;;;4.53;4.10;;;;;;;4.30;57.59;100048.94;5115327;28;20218;-68
2022/01/29 00:36:17;;;;;;;4.47;4.07;;;;;;;4.24;58.10;100043.41;5115192;28;20183;-68
2022/01/29 00:38:43;;;;;;;4.23;3.93;;;;;;;4.20;58.16;100052.56;5115194;28;20718;-69
2022/01/29 00:41:10;;;;;;;4.77;4.47;;;;;;;4.21;58.15;100044.53;5115906;28;20190;-69
2022/01/29 00:43:37;;;;;;;5.70;5.00;;;;;;;4.19;58.31;100057.00;5115427;28;20566;-68
2022/01/29 00:46:03;;;;;;;4.20;3.70;;;;;;;4.26;57.63;100052.84;5114989;28;20194;-68
2022/01/29 00:48:30;;;;;;;5.17;4.80;;;;;;;4.29;57.98;100052.53;5114943;28;20654;-68
2022/01/29 00:51:00;;;;;;;5.07;4.67;;;;;;;4.20;58.06;100061.28;5115208;28;20190;-68
2022/01/29 00:53:27;;;;;;;4.50;4.20;;;;;;;4.19;58.37;100051.75;5115674;28;20275;-69
2022/01/29 00:55:53;;;;;;;4.90;4.60;;;;;;;4.18;58.31;100055.38;5115096;28;20187;-69
2022/01/29 00:58:20;;;;;;;4.77;4.37;;;;;;;4.12;58.16;100049.81;5115918;28;20190;-69
2022/01/29 01:00:47;;;;;;;4.97;4.47;;;;;;;4.18;58.33;100055.38;5114990;28;20243;-69
2022/01/29 01:03:14;;;;;;;4.77;4.37;;;;;;;4.24;58.05;100053.94;5114898;28;20195;-68
2022/01/29 01:05:40;;;;;;;5.37;4.87;;;;;;;4.30;57.92;100058.66;5114490;28;20654;-69
2022/01/29 01:08:10;;;;;;;4.50;4.20;;;;;;;4.31;57.59;100055.03;5115400;28;20285;-68
2022/01/29 01:10:37;;;;;;;6.50;4.70;;;;;;;4.42;57.48;100063.56;5115171;28;20183;-68
2022/01/29 01:13:04;;;;;;;5.00;4.50;;;;;;;4.42;57.24;100058.31;5114381;28;20275;-68
2022/01/29 01:15:31;;;;;;;4.80;4.40;;;;;;;4.42;56.51;100058.31;5114422;28;20230;-68
2022/01/29 01:17:58;;;;;;;4.93;4.53;;;;;;;4.50;55.83;100047.91;5114726;28;20224;-68
2022/01/29 01:20:24;;;;;;;4.93;4.40;;;;;;;4.39;55.91;100045.47;5114294;28;20190;-69
2022/01/29 01:22:51;;;;;;;9.80;5.10;;;;;;;4.32;56.30;100039.13;5114278;28;20194;-69
2022/01/29 01:25:19;;;;;;;6.37;4.70;;;;;;;4.19;56.60;100030.72;5114843;28;20248;-69
2022/01/29 01:27:46;;;;;;;5.13;4.73;;;;;;;4.23;57.12;100031.25;5114183;28;20190;-68
2022/01/29 01:30:13;;;;;;;4.63;4.33;;;;;;;4.29;57.08;100030.69;5114407;28;20267;-68
2022/01/29 01:32:40;;;;;;;4.67;4.27;;;;;;;4.16;56.74;100017.84;5113973;28;20191;-68
2022/01/29 01:35:14;;;;;;;6.00;4.83;;;;;;;4.11;56.53;100017.47;5114686;28;20226;-68
2022/01/29 01:37:46;;;;;;;4.30;3.93;;;;;;;4.12;57.22;100019.09;5114022;28;20190;-68
2022/01/29 01:40:14;;;;;;;4.50;4.30;;;;;;;4.05;57.66;100012.75;5114478;28;20186;-68
2022/01/29 01:42:42;;;;;;;5.10;4.63;;;;;;;4.06;56.95;100014.44;5113864;28;20230;-68
2022/01/29 01:45:09;;;;;;;4.67;4.30;;;;;;;4.08;57.73;100012.47;5114690;28;20236;-68
2022/01/29 01:47:36;;;;;;;4.80;4.50;;;;;;;4.04;57.70;100016.38;5113071;28;20645;-68
2022/01/29 01:50:04;;;;;;;5.63;5.23;;;;;;;4.02;58.47;100023.56;5114332;28;20190;-69
2022/01/29 01:52:31;;;;;;;5.17;4.77;;;;;;;4.11;57.48;100025.34;5113764;28;20190;-68
2022/01/29 01:54:57;;;;;;;4.93;4.63;;;;;;;4.04;57.87;100026.88;5113909;28;20263;-69
2022/01/29 01:57:24;;;;;;;4.87;4.57;;;;;;;4.03;57.41;100024.38;5113950;28;20191;-69
2022/01/29 01:59:52;;;;;;;5.37;4.90;;;;;;;4.03;57.21;100014.72;5114654;28;20249;-68
2022/01/29 02:02:21;;;;;;;4.57;4.20;;;;;;;4.01;56.82;100016.63;5114356;28;20254;-69
2022/01/29 02:04:47;;;;;;;8.53;5.10;;;;;;;3.95;56.93;100019.84;5113485;28;20213;-68
2022/01/29 02:07:15;;;;;;;5.00;4.30;;;;;;;3.85;57.00;100011.13;5113415;28;20194;-69
2022/01/29 02:09:41;;;;;;;4.90;4.50;;;;;;;3.87;57.39;100011.00;5113785;28;20194;-69
2022/01/29 02:12:10;;;;;;;4.27;3.87;;;;;;;3.85;57.63;100007.69;5113609;28;20263;-69
2022/01/29 02:14:38;;;;;;;4.63;4.27;;;;;;;3.81;57.13;100004.53;5113236;28;20218;-69
2022/01/29 02:17:08;;;;;;;5.27;4.87;;;;;;;3.75;57.43;100004.25;5113548;28;20186;-68
2022/01/29 02:19:35;;;;;;;4.70;4.40;;;;;;;3.75;57.20;100005.09;5113463;28;20198;-69
2022/01/29 02:22:03;;;;;;;4.07;3.70;;;;;;;3.73;56.69;100004.41;5114006;28;20251;-69
2022/01/29 02:24:30;;;;;;;4.50;4.20;;;;;;;3.84;55.99;100008.69;5113361;28;20250;-69
2022/01/29 02:26:57;;;;;;;5.83;4.17;;;;;;;3.76;56.33;100005.91;5113551;28;20681;-68
2022/01/29 02:29:23;;;;;;;5.10;3.93;;;;;;;3.72;55.93;100002.72;5113238;28;20436;-68
2022/01/29 02:31:52;;;;;;;4.03;3.73;;;;;;;3.62;55.23;99999.28;5112960;28;20738;-69
2022/01/29 02:34:19;;;;;;;5.13;4.07;;;;;;;3.61;55.90;99997.66;5113225;28;20260;-69
2022/01/29 02:36:46;;;;;;;4.63;4.33;;;;;;;3.73;56.03;100001.78;5112903;28;20194;-69
2022/01/29 02:39:16;;;;;;;3.77;3.47;;;;;;;3.77;55.78;100002.31;5113078;28;20194;-69
2022/01/29 02:41:44;;;;;;;4.20;3.90;;;;;;;3.75;54.82;100005.09;5112749;28;20198;-69
2022/01/29 02:44:14;;;;;;;4.17;3.77;;;;;;;3.83;55.20;99997.31;5113117;28;20194;-69
2022/01/29 02:46:50;;;;;;;4.10;3.80;;;;;;;3.78;54.96;100007.44;5113063;28;20721;-68
2022/01/29 02:49:18;;;;;;;3.80;3.50;;;;;;;3.93;53.95;100021.78;5113286;28;20610;-69
2022/01/29 02:51:47;;;;;;;4.93;3.70;;;;;;;3.90;53.61;100024.69;5112636;28;20244;-68
2022/01/29 02:54:15;;;;;;;7.80;3.50;;;;;;;4.06;52.99;100014.44;5112357;28;20222;-68
2022/01/29 02:56:42;;;;;;;3.87;3.40;;;;;;;4.05;52.95;100028.53;5112838;28;20251;-68
2022/01/29 02:59:09;;;;;;;3.80;3.50;;;;;;;3.92;53.44;100022.75;5113071;28;20242;-68
2022/01/29 03:01:36;;;;;;;4.40;3.50;;;;;;;3.96;53.88;100029.38;5113346;28;20186;-68
2022/01/29 03:04:03;;;;;;;7.17;4.00;;;;;;;4.01;53.43;100032.41;5113530;28;20198;-68
2022/01/29 03:06:30;;;;;;;10.17;3.60;;;;;;;4.15;52.69;100028.50;5112705;28;20195;-68
2022/01/29 03:08:57;;;;;;;3.70;3.40;;;;;;;4.11;52.44;100032.38;5112651;28;20198;-68
2022/01/29 03:11:25;;;;;;;5.03;3.57;;;;;;;3.97;53.00;100031.03;5113236;28;20190;-67
2022/01/29 03:13:52;;;;;;;3.33;3.03;;;;;;;3.83;53.73;100023.59;5112615;28;20218;-68
2022/01/29 03:16:19;;;;;;;3.57;3.23;;;;;;;3.77;53.75;100013.66;5112828;28;20190;-68
2022/01/29 03:18:47;;;;;;;4.97;3.30;;;;;;;3.42;54.80;100015.19;5112578;28;20251;-68
2022/01/29 03:21:13;;;;;;;3.57;3.30;;;;;;;3.50;55.04;100015.31;5112263;28;20256;-68
2022/01/29 03:23:41;;;;;;;4.30;3.80;;;;;;;3.46;55.02;100019.19;5112584;28;20591;-68
2022/01/29 03:26:08;;;;;;;3.53;3.33;;;;;;;3.44;54.79;100021.94;5112228;28;20737;-67
2022/01/29 03:28:36;;;;;;;3.40;3.20;;;;;;;3.50;55.06;100026.66;5112756;28;20239;-67
2022/01/29 03:31:03;;;;;;;3.90;3.53;;;;;;;3.44;54.52;100026.38;5112118;28;20206;-67
2022/01/29 03:33:30;;;;;;;3.87;3.67;;;;;;;3.32;55.54;100024.88;5111896;28;20194;-68
2022/01/29 03:35:56;;;;;;;3.60;3.40;;;;;;;3.30;55.49;100027.63;5112431;28;20190;-68
2022/01/29 03:38:24;;;;;;;4.27;3.97;;;;;;;3.24;55.72;100030.81;5113208;28;20263;-68
2022/01/29 03:40:51;;;;;;;4.27;3.87;;;;;;;3.23;55.76;100034.38;5113243;28;20225;-68
2022/01/29 03:43:26;;;;;;;4.67;4.20;;;;;;;3.13;56.99;100032.69;5112305;28;20432;-68
2022/01/29 03:45:54;;;;;;;5.97;4.17;;;;;;;2.91;57.34;100032.94;5112160;28;20186;-69
2022/01/29 03:48:21;;;;;;;4.60;4.20;;;;;;;2.86;57.12;100035.97;5112566;28;20432;-68
2022/01/29 03:50:47;;;;;;;4.27;3.90;;;;;;;2.83;57.36;100043.28;5112004;28;20947;-68
2022/01/29 03:53:14;;;;;;;5.13;4.73;;;;;;;2.82;57.86;100044.25;5112771;28;20431;-67
2022/01/29 03:55:41;;;;;;;5.30;4.90;;;;;;;2.85;57.90;100044.81;5112684;28;20222;-68
2022/01/29 03:58:08;;;;;;;4.80;4.33;;;;;;;2.79;58.14;100039.25;5112791;28;20497;-68
2022/01/29 04:00:34;;;;;;;4.93;4.53;;;;;;;2.62;59.11;100030.22;5112123;28;20444;-68
2022/01/29 04:03:03;;;;;;;5.93;4.80;;;;;;;2.70;59.82;100035.63;5112464;28;20191;-67
2022/01/29 04:05:29;;;;;;;5.20;4.70;;;;;;;2.75;59.84;100049.19;5112157;28;20504;-67
2022/01/29 04:07:56;;;;;;;4.63;4.27;;;;;;;2.85;60.02;100034.31;5111806;28;20511;-67
2022/01/29 04:10:24;;;;;;;4.43;3.80;;;;;;;2.80;59.99;100052.25;5112362;28;20251;-67
2022/01/29 04:12:53;;;;;;;5.33;4.83;;;;;;;2.91;59.67;100048.69;5115657;28;20444;-68
2022/01/29 04:15:20;;;;;;;4.67;4.37;;;;;;;2.95;60.16;100050.91;5115731;28;20828;-68
2022/01/29 04:17:46;;;;;;;5.07;4.60;;;;;;;2.94;60.20;100041.38;5115864;28;20505;-68
2022/01/29 04:20:14;;;;;;;4.27;4.03;;;;;;;2.95;59.62;100032.56;5115806;28;20186;-68
2022/01/29 04:22:41;;;;;;;5.73;4.37;;;;;;;2.96;59.65;100039.47;5115945;28;20496;-68
2022/01/29 04:25:09;;;;;;;4.63;4.30;;;;;;;2.96;59.37;100042.06;5115415;28;20444;-68
2022/01/29 04:27:39;;;;;;;3.87;3.57;;;;;;;3.07;59.42;100034.06;5116225;28;20432;-68
2022/01/29 04:30:11;;;;;;;4.10;3.80;;;;;;;3.05;59.51;100041.25;5115859;28;20788;-67
2022/01/29 04:35:23;;;;;;;9.80;6.87;;;;;;;3.07;61.02;100052.44;5115674;28;21075;-68
2022/01/29 04:37:50;;;;;;;5.30;4.80;;;;;;;3.12;60.11;100050.25;5115721;28;20436;-68
2022/01/29 04:40:18;;;;;;;4.63;4.30;;;;;;;3.16;60.77;100042.94;5115093;28;20190;-68
2022/01/29 04:42:45;;;;;;;4.90;4.53;;;;;;;3.19;60.59;100042.69;5115367;28;20428;-68
2022/01/29 04:45:12;;;;;;;4.50;4.00;;;;;;;3.25;60.82;100048.22;5115643;28;20194;-68
2022/01/29 04:47:39;;;;;;;4.33;4.10;;;;;;;3.26;60.84;100060.34;5115010;28;20677;-68
2022/01/29 04:50:06;;;;;;;4.90;4.50;;;;;;;3.28;60.34;100058.44;5115251;28;20198;-68
2022/01/29 04:52:35;;;;;;;4.77;4.47;;;;;;;3.29;60.25;100065.34;5115136;28;20248;-68
2022/01/29 04:55:01;;;;;;;4.10;3.90;;;;;;;3.31;61.08;100063.41;5115611;28;20468;-67
2022/01/29 04:57:28;;;;;;;4.90;3.40;;;;;;;3.36;60.61;100071.72;5114818;28;20873;-68
2022/01/29 04:59:55;;;;;;;3.97;3.67;;;;;;;3.31;60.23;100062.59;5114770;28;20190;-68
2022/01/29 05:02:21;;;;;;;4.20;4.00;;;;;;;3.30;60.82;100067.00;5114986;28;20437;-68
2022/01/29 05:04:48;;;;;;;4.13;3.83;;;;;;;3.30;60.33;100069.63;5114971;28;20206;-68
2022/01/29 05:07:14;;;;;;;5.10;4.63;;;;;;;3.31;59.70;100073.91;5115173;28;20198;-67
2022/01/29 05:09:43;;;;;;;5.10;4.70;;;;;;;3.28;59.33;100075.97;5115693;28;20186;-67
2022/01/29 05:12:12;;;;;;;5.97;3.80;;;;;;;3.17;60.05;100069.06;5114840;28;20428;-68
2022/01/29 05:14:47;;;;;;;5.47;4.93;;;;;;;3.22;59.56;100064.22;5114390;28;20350;-68
2022/01/29 05:28:18;;;;;;;13.97;9.00;;;;;;;2.98;62.72;100082.13;5114432;28;20178;-68
2022/01/29 05:30:45;;;;;;;6.10;5.30;;;;;;;2.97;62.16;100090.97;5115274;28;20248;-68
2022/01/29 05:33:12;;;;;;;7.07;6.23;;;;;;;3.04;61.91;100081.59;5114235;28;20248;-68
2022/01/29 05:35:38;;;;;;;5.17;4.77;;;;;;;2.96;62.62;100084.06;5113728;28;20994;-67
2022/01/29 05:38:05;;;;;;;5.93;5.43;;;;;;;2.91;62.21;100075.75;5114449;28;20555;-67
2022/01/29 05:40:33;;;;;;;5.90;5.47;;;;;;;2.98;61.91;100082.13;5114202;28;20244;-67
2022/01/29 05:43:00;;;;;;;5.67;5.27;;;;;;;2.99;61.48;100098.69;5113930;28;20194;-67
2022/01/29 05:45:27;;;;;;;7.73;6.03;;;;;;;3.05;61.19;100092.91;5114877;28;20451;-68
2022/01/29 05:47:55;;;;;;;9.93;8.93;;;;;;;3.12;61.38;100101.91;5114114;28;20239;-67
2022/01/29 05:50:21;;;;;;;10.50;8.70;;;;;;;3.12;60.43;100100.13;5114822;28;20500;-68
2022/01/29 05:52:48;;;;;;;8.07;6.97;;;;;;;3.14;60.42;100100.81;5113666;28;20943;-68
2022/01/29 05:55:15;;;;;;;8.80;7.90;;;;;;;3.15;60.68;100112.16;5114621;28;20584;-67
2022/01/29 05:57:43;;;;;;;9.10;6.63;;;;;;;3.27;60.05;100109.25;5114134;28;20198;-68
2022/01/29 06:00:11;;;;;;;8.67;6.20;;;;;;;3.30;60.04;100110.78;5113427;28;20438;-68
2022/01/29 06:02:37;;;;;;;5.93;5.30;;;;;;;3.38;59.91;100114.41;5113752;28;20191;-68
2022/01/29 06:05:05;;;;;;;6.50;5.90;;;;;;;3.49;59.91;100119.56;5113603;28;20202;-68
2022/01/29 06:07:31;;;;;;;5.57;5.23;;;;;;;3.62;59.34;100117.47;5113380;28;20195;-70
2022/01/29 06:09:58;;;;;;;5.77;5.37;;;;;;;3.84;58.50;100127.72;5113287;28;20440;-70
2022/01/29 06:12:25;;;;;;;8.17;6.60;;;;;;;3.96;58.42;100131.88;5113099;28;20190;-71
2022/01/29 06:14:53;;;;;;;5.40;5.00;;;;;;;4.12;58.06;100139.19;5109824;28;20225;-73
2022/01/29 06:17:20;;;;;;;6.90;5.10;;;;;;;4.31;57.45;100129.50;5092425;28;20714;-76
2022/01/29 06:19:48;;;;;;;7.43;5.07;;;;;;;4.52;56.36;100138.03;5092909;28;20198;-75
2022/01/29 06:22:15;;;;;;;80.60;11.57;;;;;;;4.72;55.70;100142.28;5092639;28;20209;-76
2022/01/29 06:24:42;;;;;;;9.23;5.97;;;;;;;4.96;55.51;100142.63;5092285;28;20188;-76
2022/01/29 06:27:09;;;;;;;26.73;6.77;;;;;;;5.03;55.10;100138.41;5092230;28;20223;-76
2022/01/29 06:29:36;;;;;;;8.40;5.97;;;;;;;5.24;54.38;100141.63;5089516;28;20187;-74
2022/01/29 06:32:04;;;;;;;6.43;4.93;;;;;;;5.50;53.06;100142.63;5090917;28;20184;-73
2022/01/29 06:34:31;;;;;;;5.13;4.73;;;;;;;5.71;52.34;100140.53;5089083;28;20219;-74
2022/01/29 06:36:58;;;;;;;7.07;5.17;;;;;;;5.85;52.27;100146.28;5092496;28;20240;-74
2022/01/29 06:39:24;;;;;;;7.90;4.97;;;;;;;5.97;51.50;100155.63;5090753;28;20736;-75
2022/01/29 06:41:51;;;;;;;5.67;5.03;;;;;;;5.93;51.56;100149.00;5092671;28;20197;-73
2022/01/29 06:44:18;;;;;;;5.67;5.17;;;;;;;5.83;52.26;100161.44;5091492;28;20241;-73
2022/01/29 06:46:44;;;;;;;5.90;5.40;;;;;;;5.94;52.55;100155.94;5092431;28;20249;-73
2022/01/29 06:49:12;;;;;;;5.07;4.60;;;;;;;5.84;52.93;100160.47;5092348;28;20195;-76
2022/01/29 06:51:39;;;;;;;6.13;5.43;;;;;;;5.73;53.03;100164.09;5092984;28;20187;-77
2022/01/29 06:54:06;;;;;;;16.87;5.90;;;;;;;5.95;52.48;100162.88;5092384;28;20196;-75
2022/01/29 06:56:32;;;;;;;5.47;4.97;;;;;;;6.00;52.46;100163.25;5092359;28;20223;-79
2022/01/29 06:58:59;;;;;;;7.20;6.50;;;;;;;5.85;52.08;100170.00;5092233;28;20252;-71
2022/01/29 07:01:26;;;;;;;8.83;6.90;;;;;;;5.75;52.67;100162.97;5090614;28;20192;-69
2022/01/29 07:03:53;;;;;;;13.67;5.63;;;;;;;5.81;52.70;100171.28;5089441;28;20667;-75
2022/01/29 07:06:21;;;;;;;5.80;4.00;;;;;;;5.74;52.84;100166.59;5092248;28;20254;-74
2022/01/29 07:08:47;;;;;;;5.90;4.93;;;;;;;5.74;52.74;100166.59;5091997;28;20200;-75
2022/01/29 07:11:14;;;;;;;5.67;5.17;;;;;;;5.68;52.99;100169.00;5092640;28;20581;-74
2022/01/29 07:13:41;;;;;;;6.47;5.67;;;;;;;5.78;52.56;100175.88;5092173;28;20199;-74
2022/01/29 07:16:07;;;;;;;9.27;5.83;;;;;;;5.91;52.32;100182.63;5092711;28;20219;-73
2022/01/29 07:18:34;;;;;;;6.13;5.57;;;;;;;6.04;52.24;100173.31;5092030;28;20241;-74
2022/01/29 07:21:01;;;;;;;6.13;5.50;;;;;;;6.10;51.74;100183.28;5091690;28;20229;-67
2022/01/29 07:23:29;;;;;;;6.03;5.50;;;;;;;6.29;51.26;100179.66;5091944;28;20195;-67
2022/01/29 07:25:55;;;;;;;10.53;6.00;;;;;;;6.40;50.74;100184.72;5092065;28;20252;-68
2022/01/29 07:28:22;;;;;;;33.77;6.70;;;;;;;6.35;51.34;100181.69;5091622;28;20276;-67
2022/01/29 07:30:49;;;;;;;6.00;5.50;;;;;;;6.34;51.12;100193.22;5092003;28;20248;-68
2022/01/29 07:33:15;;;;;;;7.87;6.83;;;;;;;6.24;51.64;100192.50;5091545;28;20239;-66
2022/01/29 07:35:42;;;;;;;6.57;5.90;;;;;;;6.32;51.63;100190.72;5091686;28;20261;-67
2022/01/29 07:38:09;;;;;;;8.07;6.10;;;;;;;6.24;51.50;100193.31;5099550;28;20260;-69
2022/01/29 07:40:37;;;;;;;6.40;5.83;;;;;;;6.19;51.60;100189.44;5096285;28;20251;-69
2022/01/29 07:43:03;;;;;;;6.00;5.30;;;;;;;6.14;52.17;100178.53;5111617;28;20190;-69
2022/01/29 07:45:30;;;;;;;8.73;5.20;;;;;;;6.01;52.70;100178.94;5102348;28;20245;-68
2022/01/29 07:47:57;;;;;;;5.73;5.23;;;;;;;6.06;52.78;100178.47;5095790;28;20829;-68
2022/01/29 07:50:24;;;;;;;9.20;8.40;;;;;;;6.24;52.21;100179.31;5093917;28;20192;-69
2022/01/29 07:52:50;;;;;;;9.73;5.83;;;;;;;6.30;52.24;100191.88;5093476;28;20194;-69
2022/01/29 07:55:17;;;;;;;6.27;5.77;;;;;;;6.37;51.84;100195.56;5094089;28;20219;-68
2022/01/29 07:57:45;;;;;;;6.47;5.90;;;;;;;6.39;52.18;100201.50;5095665;28;20202;-69
2022/01/29 08:00:13;;;;;;;9.80;6.00;;;;;;;6.42;52.26;100204.69;5094886;28;20191;-68
2022/01/29 08:02:40;;;;;;;6.73;5.07;;;;;;;6.46;52.38;100199.94;5094048;28;20677;-68
2022/01/29 08:05:07;;;;;;;6.07;5.57;;;;;;;6.36;52.41;100199.19;5090864;28;20204;-69
2022/01/29 08:07:34;;;;;;;6.00;5.50;;;;;;;6.26;52.92;100204.53;5092878;28;20191;-69
2022/01/29 08:10:01;;;;;;;6.07;5.67;;;;;;;6.33;52.27;100194.22;5094837;28;20195;-69
2022/01/29 08:12:27;;;;;;;6.10;5.63;;;;;;;6.55;52.22;100197.19;5095170;28;20198;-68
2022/01/29 08:14:55;;;;;;;7.20;6.50;;;;;;;6.67;51.92;100185.41;5094860;28;20723;-68
2022/01/29 08:17:22;;;;;;;7.77;5.83;;;;;;;6.69;51.58;100195.81;5094546;28;20260;-69
2022/01/29 08:19:49;;;;;;;8.43;7.13;;;;;;;6.83;51.47;100203.19;5094090;28;20195;-68
2022/01/29 08:22:16;;;;;;;8.47;5.90;;;;;;;6.98;51.08;100201.63;5094890;28;20196;-68
2022/01/29 08:24:43;;;;;;;6.53;6.10;;;;;;;7.20;51.16;100211.66;5094999;28;20241;-69
2022/01/29 08:27:10;;;;;;;6.60;5.47;;;;;;;7.17;51.02;100222.53;5094785;28;20191;-69
2022/01/29 08:29:37;;;;;;;10.17;5.73;;;;;;;7.24;51.14;100223.56;5094686;28;20655;-69
2022/01/29 08:32:06;;;;;;;5.70;5.20;;;;;;;7.53;50.31;100221.41;5094758;28;20203;-68
2022/01/29 08:34:33;;;;;;;6.27;5.77;;;;;;;7.50;49.64;100211.13;5094857;28;20226;-71
2022/01/29 08:37:02;;;;;;;9.57;6.13;;;;;;;7.28;50.30;100214.34;5094608;28;20241;-69
2022/01/29 08:39:28;;;;;;;6.73;6.13;;;;;;;7.46;49.39;100213.28;5095113;28;20191;-70
2022/01/29 08:41:55;;;;;;;8.73;7.70;;;;;;;7.68;49.74;100219.81;5094832;28;20275;-69
2022/01/29 08:44:22;;;;;;;7.53;6.90;;;;;;;7.73;48.64;100230.72;5094497;28;20258;-68
2022/01/29 08:46:49;;;;;;;6.27;5.77;;;;;;;7.96;48.16;100234.44;5094379;28;20203;-68
2022/01/29 08:49:17;;;;;;;101.87;48.23;;;;;;;8.08;48.14;100241.09;5094148;28;20604;-68
2022/01/29 08:51:43;;;;;;;19.10;11.70;;;;;;;8.14;48.14;100238.63;5094532;28;20187;-68
2022/01/29 08:54:10;;;;;;;9.53;8.53;;;;;;;8.08;47.27;100230.53;5094169;28;20671;-68
2022/01/29 08:56:37;;;;;;;7.27;4.93;;;;;;;7.76;48.42;100230.41;5095070;28;20219;-68
2022/01/29 08:59:04;;;;;;;6.17;5.47;;;;;;;7.49;49.27;100234.13;5094069;28;20552;-70
2022/01/29 09:01:31;;;;;;;6.20;5.70;;;;;;;7.67;49.35;100237.47;5094090;28;20198;-69
2022/01/29 09:03:57;;;;;;;8.40;6.20;;;;;;;7.72;48.41;100244.94;5093845;28;20747;-68
2022/01/29 09:06:25;;;;;;;6.77;6.00;;;;;;;7.73;49.12;100242.16;5094591;28;20195;-69
2022/01/29 09:08:52;;;;;;;12.40;6.27;;;;;;;7.82;47.29;100241.19;5093877;28;20608;-70
2022/01/29 09:11:20;;;;;;;7.03;5.73;;;;;;;7.93;46.51;100237.41;5094260;28;20240;-68
2022/01/29 09:13:48;;;;;;;6.83;6.23;;;;;;;8.13;46.17;100229.00;5094252;28;20251;-71
2022/01/29 09:16:14;;;;;;;10.40;7.53;;;;;;;8.27;46.02;100231.06;5094416;28;20219;-68
2022/01/29 09:18:41;;;;;;;9.33;7.07;;;;;;;8.35;45.63;100230.25;5094232;28;20238;-68
2022/01/29 09:21:08;;;;;;;23.10;8.83;;;;;;;8.56;46.06;100225.28;5094136;28;20267;-68
2022/01/29 09:23:36;;;;;;;9.70;7.23;;;;;;;8.53;45.62;100220.34;5094314;28;20192;-68
2022/01/29 09:26:03;;;;;;;7.10;6.57;;;;;;;8.79;45.19;100226.28;5093790;28;20252;-68
2022/01/29 09:28:30;;;;;;;14.63;6.80;;;;;;;8.99;45.17;100209.84;5094175;28;20264;-68
2022/01/29 09:30:57;;;;;;;6.33;5.83;;;;;;;8.87;44.87;100223.63;5093425;28;20566;-68
2022/01/29 09:33:23;;;;;;;6.67;5.90;;;;;;;8.84;45.55;100216.84;5093860;28;20191;-68
2022/01/29 09:35:50;;;;;;;7.67;6.27;;;;;;;8.78;45.29;100204.25;5093374;28;20368;-68
2022/01/29 09:38:17;;;;;;;5.80;5.30;;;;;;;8.89;44.64;100211.03;5093560;28;20191;-68
2022/01/29 09:40:45;;;;;;;7.03;6.27;;;;;;;8.92;44.15;100216.84;5093443;28;20195;-68
2022/01/29 09:43:12;;;;;;;6.50;5.90;;;;;;;8.81;44.97;100216.34;5093586;28;20192;-68
2022/01/29 09:45:39;;;;;;;7.50;6.70;;;;;;;8.91;45.32;100217.00;5093409;28;20666;-69
2022/01/29 09:48:06;;;;;;;7.97;6.17;;;;;;;8.86;45.01;100222.00;5093656;28;20252;-68
2022/01/29 09:50:36;;;;;;;7.07;6.40;;;;;;;8.74;45.56;100218.03;5093335;28;20199;-69
2022/01/29 09:53:04;;;;;;;7.17;6.20;;;;;;;8.75;44.92;100211.72;5093381;28;20220;-68
2022/01/29 09:55:31;;;;;;;6.30;5.47;;;;;;;8.72;44.89;100209.41;5092879;28;20219;-68
2022/01/29 09:58:00;;;;;;;7.23;5.20;;;;;;;8.82;45.28;100210.06;5093227;28;20256;-68
2022/01/29 10:00:27;;;;;;;8.47;6.20;;;;;;;8.88;44.82;100204.09;5092798;28;20199;-68
2022/01/29 10:03:19;;;;;;;13.33;8.17;;;;;;;8.78;45.88;100206.09;5092828;28;20191;-68
2022/01/29 10:05:48;;;;;;;20.03;11.70;;;;;;;8.99;45.61;100207.22;5092718;28;20195;-68
2022/01/29 10:08:15;;;;;;;8.87;6.67;;;;;;;8.99;45.31;100211.69;5092439;28;20195;-68
2022/01/29 10:10:43;;;;;;;26.00;11.50;;;;;;;9.13;45.65;100213.66;5092645;28;20199;-68
2022/01/29 10:13:32;;;;;;;13.10;7.47;;;;;;;8.99;45.72;100193.16;5093019;28;20547;-68
2022/01/29 10:16:08;;;;;;;9.23;7.60;;;;;;;9.18;45.60;100203.34;5092981;28;20211;-68
2022/01/29 10:18:35;;;;;;;8.97;6.67;;;;;;;9.24;44.84;100184.94;5092987;28;20190;-68
2022/01/29 10:21:11;;;;;;;7.40;6.70;;;;;;;9.22;44.56;100202.03;5092522;28;20616;-68
2022/01/29 10:23:38;;;;;;;10.73;8.00;;;;;;;9.08;44.75;100194.78;5093006;28;20184;-68
2022/01/29 10:26:07;;;;;;;6.83;6.23;;;;;;;9.23;44.77;100198.41;5092306;28;20648;-68
2022/01/29 10:28:35;;;;;;;8.50;4.93;;;;;;;9.41;43.96;100201.66;5092458;28;20194;-70
2022/01/29 10:31:03;;;;;;;10.10;5.70;;;;;;;9.59;43.92;100197.75;5092378;28;20320;-68
2022/01/29 10:33:32;;;;;;;7.83;7.13;;;;;;;9.66;44.07;100201.38;5092653;28;20252;-68
2022/01/29 10:36:00;;;;;;;6.70;6.20;;;;;;;9.66;44.78;100189.94;5092391;28;20272;-68
2022/01/29 10:38:29;;;;;;;9.83;6.07;;;;;;;9.91;44.18;100194.09;5092660;28;20631;-68
2022/01/29 10:41:16;;;;;;;15.13;6.20;;;;;;;10.12;42.28;100203.13;5092600;28;20187;-70
2022/01/29 10:44:12;;;;;;;5.67;5.17;;;;;;;9.74;43.09;100195.19;5091618;28;20187;-68
2022/01/29 10:46:45;;;;;;;13.50;5.47;;;;;;;9.83;43.17;100199.47;5091566;28;20270;-67
2022/01/29 10:49:24;;;;;;;7.47;6.87;;;;;;;9.83;43.07;100207.41;5083322;28;20188;-69
2022/01/29 10:52:02;;;;;;;9.07;8.23;;;;;;;9.76;44.34;100203.81;5074083;28;20547;-68
2022/01/29 10:54:30;;;;;;;6.93;6.43;;;;;;;9.87;44.24;100196.28;5090397;28;20658;-68
2022/01/29 10:56:59;;;;;;;5.23;4.83;;;;;;;9.82;43.69;100201.31;5091532;28;20241;-67
2022/01/29 10:59:28;;;;;;;6.67;5.30;;;;;;;9.56;43.46;100189.31;5091967;28;20634;-65
2022/01/29 11:01:57;;;;;;;5.17;4.67;;;;;;;9.65;45.44;100194.41;5092146;28;20244;-64
2022/01/29 11:04:26;;;;;;;5.17;4.87;;;;;;;9.80;43.93;100184.72;5091679;28;20700;-67
2022/01/29 11:06:54;;;;;;;5.73;4.70;;;;;;;9.88;44.28;100195.28;5091918;28;20201;-65
2022/01/29 11:09:22;;;;;;;4.43;3.83;;;;;;;9.99;42.23;100197.56;5092241;28;20286;-67
2022/01/29 11:11:51;;;;;;;5.13;4.67;;;;;;;9.82;42.66;100187.19;5091711;28;20638;-70
2022/01/29 11:14:20;;;;;;;5.07;4.67;;;;;;;9.71;42.90;100188.41;5091942;28;20191;-70
2022/01/29 11:16:50;;;;;;;4.87;4.37;;;;;;;9.45;42.98;100189.69;5091783;28;20598;-69
2022/01/29 11:19:17;;;;;;;5.27;4.90;;;;;;;9.56;42.76;100186.69;5092027;28;20192;-70
2022/01/29 11:21:45;;;;;;;11.17;7.30;;;;;;;9.59;43.19;100183.66;5091196;28;20202;-69
2022/01/29 11:24:13;;;;;;;5.17;4.67;;;;;;;9.73;42.77;100185.59;5092966;28;20191;-71
2022/01/29 11:26:41;;;;;;;6.17;5.67;;;;;;;9.91;42.58;100180.84;5091932;28;20260;-69
2022/01/29 11:29:31;;;;;;;5.37;4.90;;;;;;;10.14;41.90;100173.75;5091929;28;20282;-69
2022/01/29 11:32:40;;;;;;;6.83;4.17;;;;;;;10.25;41.23;100174.16;5091779;28;20189;-69
2022/01/29 11:35:17;;;;;;;5.87;5.47;;;;;;;10.32;41.13;100172.47;5092325;28;20226;-68
2022/01/29 11:38:07;;;;;;;4.13;3.67;;;;;;;10.18;40.67;100178.53;5092029;28;20210;-69
2022/01/29 11:40:36;;;;;;;4.30;3.90;;;;;;;10.19;40.08;100171.41;5091894;28;20227;-69
2022/01/29 11:43:09;;;;;;;4.53;4.13;;;;;;;10.25;40.84;100170.72;5092507;28;20192;-68
2022/01/29 11:45:43;;;;;;;4.80;4.40;;;;;;;10.48;40.35;100166.19;5091685;28;20187;-70
2022/01/29 11:48:54;;;;;;;4.87;4.00;;;;;;;10.74;39.52;100170.09;5092751;28;20212;-69
2022/01/29 11:51:46;;;;;;;9.20;5.23;;;;;;;11.04;39.35;100169.13;5091696;28;20210;-72